createdAt,value
2017-01-16T00:01:06.811Z,15.74
2017-01-16T00:02:17.036Z,15.74
2017-01-16T00:03:26.765Z,15.68
2017-01-16T00:04:36.499Z,15.65
2017-01-16T00:05:46.232Z,15.65
2017-01-16T00:06:56.404Z,15.62
2017-01-16T00:08:05.738Z,15.65
2017-01-16T00:09:15.911Z,15.62
2017-01-16T00:10:26.080Z,15.69
2017-01-16T00:11:36.249Z,15.65
2017-01-16T00:12:46.430Z,15.67
2017-01-16T00:13:56.655Z,15.65
2017-01-16T00:15:06.388Z,15.64
2017-01-16T00:16:15.669Z,15.64
2017-01-16T00:17:25.395Z,15.69
2017-01-16T00:18:35.128Z,15.62
2017-01-16T00:19:45.349Z,15.6
2017-01-16T00:20:55.079Z,15.64
2017-01-16T00:22:04.807Z,15.62
2017-01-16T00:23:14.536Z,15.67
2017-01-16T00:24:24.257Z,15.64
2017-01-16T00:25:34.039Z,15.47
2017-01-16T00:26:43.763Z,15.59
2017-01-16T00:27:53.933Z,15.47
2017-01-16T00:29:03.218Z,15.6
2017-01-16T00:30:12.951Z,15.57
2017-01-16T00:31:22.760Z,15.56
2017-01-16T00:32:32.497Z,15.5
2017-01-16T00:33:42.223Z,15.54
2017-01-16T00:34:51.955Z,15.59
2017-01-16T00:36:02.129Z,15.56
2017-01-16T00:37:11.906Z,15.57
2017-01-16T00:38:22.086Z,15.56
2017-01-16T00:39:31.816Z,15.53
2017-01-16T00:40:41.545Z,15.6
2017-01-16T00:41:51.283Z,15.54
2017-01-16T00:43:01.063Z,15.47
2017-01-16T00:44:10.801Z,15.5
2017-01-16T00:45:20.970Z,15.57
2017-01-16T00:46:31.143Z,15.56
2017-01-16T00:47:41.316Z,15.56
2017-01-16T00:48:51.093Z,15.54
2017-01-16T00:50:01.702Z,15.51
2017-01-16T00:51:11.435Z,15.51
2017-01-16T00:52:21.160Z,15.46
2017-01-16T00:53:31.773Z,15.47
2017-01-16T00:54:41.555Z,15.46
2017-01-16T00:55:51.288Z,15.51
2017-01-16T00:57:01.013Z,15.54
2017-01-16T00:58:10.738Z,15.41
2017-01-16T00:59:20.463Z,15.38
2017-01-16T01:00:30.241Z,15.38
2017-01-16T01:01:39.978Z,15.38
2017-01-16T01:02:50.154Z,15.44
2017-01-16T01:04:01.213Z,15.41
2017-01-16T01:05:10.941Z,15.43
2017-01-16T01:06:20.722Z,15.35
2017-01-16T01:07:30.443Z,15.39
2017-01-16T01:08:40.613Z,15.43
2017-01-16T01:09:51.230Z,15.46
2017-01-16T01:11:01.411Z,15.43
2017-01-16T01:12:11.640Z,15.44
2017-01-16T01:13:21.809Z,15.38
2017-01-16T01:14:31.986Z,15.46
2017-01-16T01:15:42.155Z,15.44
2017-01-16T01:16:51.913Z,15.41
2017-01-16T01:18:02.138Z,15.35
2017-01-16T01:19:12.306Z,15.43
2017-01-16T01:20:22.476Z,15.43
2017-01-16T01:21:32.225Z,15.35
2017-01-16T01:22:42.394Z,15.35
2017-01-16T01:23:52.712Z,15.38
2017-01-16T01:25:02.444Z,15.39
2017-01-16T01:26:12.173Z,15.43
2017-01-16T01:27:21.907Z,15.38
2017-01-16T01:28:32.076Z,15.38
2017-01-16T01:29:41.853Z,15.36
2017-01-16T01:30:52.022Z,15.34
2017-01-16T01:32:01.775Z,15.28
2017-01-16T01:33:11.944Z,15.27
2017-01-16T01:34:21.676Z,15.31
2017-01-16T01:35:31.015Z,15.32
2017-01-16T01:36:41.184Z,15.28
2017-01-16T01:37:51.821Z,15.29
2017-01-16T01:39:02.438Z,15.32
2017-01-16T01:40:12.615Z,15.27
2017-01-16T01:41:22.832Z,15.32
2017-01-16T01:42:33.005Z,15.27
2017-01-16T01:43:42.739Z,15.27
2017-01-16T01:44:52.912Z,15.32
2017-01-16T01:46:02.197Z,15.32
2017-01-16T01:47:12.858Z,15.32
2017-01-16T01:48:23.023Z,15.34
2017-01-16T01:49:32.757Z,15.25
2017-01-16T01:50:43.382Z,15.31
2017-01-16T01:51:53.551Z,15.34
2017-01-16T01:53:03.792Z,15.31
2017-01-16T01:54:13.525Z,15.29
2017-01-16T01:55:23.250Z,15.32
2017-01-16T01:56:32.979Z,15.32
2017-01-16T01:57:42.705Z,15.27
2017-01-16T01:58:53.370Z,15.31
2017-01-16T02:00:03.103Z,15.27
2017-01-16T02:01:12.384Z,15.27
2017-01-16T02:02:22.553Z,15.27
2017-01-16T02:03:32.282Z,15.29
2017-01-16T02:04:42.055Z,15.21
2017-01-16T02:05:52.240Z,15.29
2017-01-16T02:07:02.402Z,15.23
2017-01-16T02:08:12.127Z,15.2
2017-01-16T02:09:22.300Z,15.2
2017-01-16T02:10:32.081Z,15.2
2017-01-16T02:11:42.250Z,15.31
2017-01-16T02:12:52.412Z,15.2
2017-01-16T02:14:01.704Z,15.25
2017-01-16T02:15:11.430Z,15.19
2017-01-16T02:16:21.207Z,15.2
2017-01-16T02:17:30.936Z,15.17
2017-01-16T02:18:40.661Z,15.23
2017-01-16T02:19:50.406Z,15.2
2017-01-16T02:21:00.572Z,15.19
2017-01-16T02:22:10.448Z,15.17
2017-01-16T02:23:21.065Z,15.13
2017-01-16T02:24:31.676Z,15.23
2017-01-16T02:25:41.400Z,15.25
2017-01-16T02:26:50.685Z,15.13
2017-01-16T02:28:00.898Z,15.25
2017-01-16T02:29:10.627Z,15.13
2017-01-16T02:30:20.373Z,15.25
2017-01-16T02:31:30.105Z,15.17
2017-01-16T02:32:40.278Z,15.14
2017-01-16T02:33:50.503Z,15.17
2017-01-16T02:35:00.673Z,15.13
2017-01-16T02:36:10.398Z,15.19
2017-01-16T02:37:20.119Z,15.27
2017-01-16T02:38:30.288Z,15.16
2017-01-16T02:39:40.066Z,15.17
2017-01-16T02:40:49.795Z,15.19
2017-01-16T02:41:59.524Z,15.2
2017-01-16T02:43:09.246Z,15.14
2017-01-16T02:44:18.967Z,15.13
2017-01-16T02:45:28.739Z,15.23
2017-01-16T02:46:38.469Z,15.07
2017-01-16T02:47:48.186Z,15.17
2017-01-16T02:48:58.344Z,15.21
2017-01-16T02:50:08.940Z,15.19
2017-01-16T02:51:19.229Z,15.09
2017-01-16T02:52:29.315Z,15.2
2017-01-16T02:53:40.568Z,15.1
2017-01-16T02:54:49.849Z,15.19
2017-01-16T02:56:00.037Z,15.19
2017-01-16T02:57:10.247Z,15.19
2017-01-16T02:58:20.396Z,15.16
2017-01-16T02:59:30.110Z,15.2
2017-01-16T03:00:39.394Z,15.2
2017-01-16T03:01:48.672Z,15.13
2017-01-16T03:02:59.025Z,15.1
2017-01-16T03:04:10.058Z,15.14
2017-01-16T03:05:19.339Z,15.11
2017-01-16T03:06:29.937Z,15.16
2017-01-16T03:07:39.654Z,15.16
2017-01-16T03:08:48.983Z,15.17
2017-01-16T03:09:59.136Z,15.16
2017-01-16T03:11:08.866Z,15.16
2017-01-16T03:12:18.578Z,15.11
2017-01-16T03:13:29.171Z,15.1
2017-01-16T03:14:39.381Z,15.14
2017-01-16T03:15:49.098Z,15.09
2017-01-16T03:16:59.251Z,15.17
2017-01-16T03:18:09.404Z,15.1
2017-01-16T03:19:19.565Z,15.07
2017-01-16T03:20:29.335Z,15.03
2017-01-16T03:21:38.620Z,15.06
2017-01-16T03:22:48.337Z,15.07
2017-01-16T03:23:58.490Z,15.01
2017-01-16T03:25:07.768Z,15.09
2017-01-16T03:26:17.109Z,15.07
2017-01-16T03:27:26.826Z,15.1
2017-01-16T03:28:37.419Z,15.06
2017-01-16T03:29:47.144Z,15.07
2017-01-16T03:30:57.294Z,15.07
2017-01-16T03:32:07.507Z,15.07
2017-01-16T03:33:16.808Z,15.07
2017-01-16T03:34:27.401Z,15.02
2017-01-16T03:35:36.691Z,15.01
2017-01-16T03:36:46.843Z,14.95
2017-01-16T03:37:57.049Z,15.07
2017-01-16T03:39:06.770Z,15.09
2017-01-16T03:40:16.483Z,15.03
2017-01-16T03:41:26.648Z,14.98
2017-01-16T03:42:37.233Z,14.94
2017-01-16T03:43:47.874Z,14.94
2017-01-16T03:44:58.028Z,14.96
2017-01-16T03:46:07.753Z,14.95
2017-01-16T03:47:17.906Z,14.99
2017-01-16T03:48:27.631Z,14.96
2017-01-16T03:49:36.961Z,14.96
2017-01-16T03:50:46.678Z,14.92
2017-01-16T03:51:56.830Z,14.94
2017-01-16T03:53:07.420Z,14.92
2017-01-16T03:54:16.697Z,14.96
2017-01-16T03:55:26.915Z,15.01
2017-01-16T03:56:37.072Z,14.86
2017-01-16T03:57:46.793Z,14.94
2017-01-16T03:58:57.390Z,14.98
2017-01-16T04:00:07.983Z,15.01
2017-01-16T04:01:18.628Z,14.99
2017-01-16T04:02:28.786Z,14.91
2017-01-16T04:03:38.499Z,14.95
2017-01-16T04:04:48.212Z,14.95
2017-01-16T04:05:58.373Z,14.94
2017-01-16T04:07:08.143Z,14.94
2017-01-16T04:08:18.300Z,14.99
2017-01-16T04:09:27.577Z,14.94
2017-01-16T04:10:37.734Z,14.91
2017-01-16T04:11:48.328Z,14.84
2017-01-16T04:12:58.976Z,14.94
2017-01-16T04:14:08.258Z,14.92
2017-01-16T04:15:17.539Z,14.89
2017-01-16T04:16:27.256Z,14.91
2017-01-16T04:17:37.417Z,14.88
2017-01-16T04:18:47.183Z,14.75
2017-01-16T04:19:57.339Z,14.88
2017-01-16T04:21:07.053Z,14.89
2017-01-16T04:22:17.650Z,14.91
2017-01-16T04:23:26.939Z,14.91
2017-01-16T04:24:36.420Z,14.89
2017-01-16T04:25:46.134Z,14.84
2017-01-16T04:26:55.854Z,14.89
2017-01-16T04:28:05.572Z,14.75
2017-01-16T04:29:15.289Z,14.81
2017-01-16T04:30:24.622Z,14.88
2017-01-16T04:31:34.343Z,14.75
2017-01-16T04:32:43.624Z,14.8
2017-01-16T04:33:52.909Z,14.8
2017-01-16T04:35:03.064Z,14.78
2017-01-16T04:36:13.308Z,14.75
2017-01-16T04:37:24.341Z,14.8
2017-01-16T04:38:33.614Z,14.77
2017-01-16T04:39:43.772Z,14.83
2017-01-16T04:40:53.929Z,14.7
2017-01-16T04:42:04.134Z,14.75
2017-01-16T04:43:13.423Z,14.8
2017-01-16T04:44:23.140Z,14.77
2017-01-16T04:45:32.417Z,14.83
2017-01-16T04:46:42.135Z,14.83
2017-01-16T04:47:52.348Z,14.78
2017-01-16T04:49:02.069Z,14.78
2017-01-16T04:50:12.238Z,14.78
2017-01-16T04:51:22.831Z,14.75
2017-01-16T04:52:33.425Z,14.78
2017-01-16T04:53:43.193Z,14.77
2017-01-16T04:54:53.351Z,14.8
2017-01-16T04:56:03.072Z,14.72
2017-01-16T04:57:13.230Z,14.83
2017-01-16T04:58:23.394Z,14.69
2017-01-16T04:59:34.040Z,14.8
2017-01-16T05:00:43.317Z,14.7
2017-01-16T05:01:53.466Z,14.78
2017-01-16T05:03:03.179Z,14.69
2017-01-16T05:04:12.896Z,14.69
2017-01-16T05:05:23.101Z,14.7
2017-01-16T05:06:33.695Z,14.73
2017-01-16T05:07:43.412Z,14.69
2017-01-16T05:08:53.129Z,14.69
2017-01-16T05:10:02.402Z,14.84
2017-01-16T05:11:12.171Z,14.68
2017-01-16T05:12:21.457Z,14.7
2017-01-16T05:13:31.618Z,14.72
2017-01-16T05:14:40.895Z,14.77
2017-01-16T05:15:50.616Z,14.69
2017-01-16T05:17:00.389Z,14.68
2017-01-16T05:18:10.106Z,14.69
2017-01-16T05:19:19.832Z,14.81
2017-01-16T05:20:29.109Z,14.78
2017-01-16T05:21:38.826Z,14.77
2017-01-16T05:22:49.475Z,14.69
2017-01-16T05:23:59.634Z,14.68
2017-01-16T05:25:09.813Z,14.64
2017-01-16T05:26:19.095Z,14.72
2017-01-16T05:27:29.244Z,14.73
2017-01-16T05:28:39.157Z,14.77
2017-01-16T05:29:49.754Z,14.69
2017-01-16T05:30:59.936Z,14.69
2017-01-16T05:32:10.092Z,14.69
2017-01-16T05:33:19.371Z,14.69
2017-01-16T05:34:29.575Z,14.73
2017-01-16T05:35:39.288Z,14.65
2017-01-16T05:36:49.005Z,14.68
2017-01-16T05:37:58.731Z,14.75
2017-01-16T05:39:08.011Z,14.64
2017-01-16T05:40:18.220Z,14.7
2017-01-16T05:41:27.502Z,14.69
2017-01-16T05:42:36.785Z,14.64
2017-01-16T05:43:46.936Z,14.64
2017-01-16T05:44:56.654Z,14.62
2017-01-16T05:46:05.987Z,14.73
2017-01-16T05:47:15.712Z,14.61
2017-01-16T05:48:24.989Z,14.72
2017-01-16T05:49:35.142Z,14.62
2017-01-16T05:50:44.863Z,14.69
2017-01-16T05:51:54.656Z,14.64
2017-01-16T05:53:03.934Z,14.62
2017-01-16T05:54:13.211Z,14.64
2017-01-16T05:55:23.368Z,14.65
2017-01-16T05:56:33.085Z,14.68
2017-01-16T05:57:42.411Z,14.62
2017-01-16T05:58:52.572Z,14.7
2017-01-16T06:00:01.857Z,14.58
2017-01-16T06:01:12.006Z,14.62
2017-01-16T06:02:22.195Z,14.58
2017-01-16T06:03:31.520Z,14.64
2017-01-16T06:04:42.105Z,14.68
2017-01-16T06:05:51.823Z,14.69
2017-01-16T06:07:01.540Z,14.64
2017-01-16T06:08:11.261Z,14.61
2017-01-16T06:09:21.026Z,14.65
2017-01-16T06:10:31.179Z,14.57
2017-01-16T06:11:40.896Z,14.68
2017-01-16T06:12:51.061Z,14.62
2017-01-16T06:14:01.215Z,14.57
2017-01-16T06:15:10.540Z,14.68
2017-01-16T06:16:19.821Z,14.69
2017-01-16T06:17:30.412Z,14.68
2017-01-16T06:18:39.695Z,14.55
2017-01-16T06:19:50.288Z,14.62
2017-01-16T06:21:00.934Z,14.6
2017-01-16T06:22:10.215Z,14.58
2017-01-16T06:23:19.928Z,14.57
2017-01-16T06:24:29.645Z,14.58
2017-01-16T06:25:38.926Z,14.55
2017-01-16T06:26:48.691Z,14.54
2017-01-16T06:27:58.409Z,14.55
2017-01-16T06:29:08.126Z,14.58
2017-01-16T06:30:17.883Z,14.57
2017-01-16T06:31:27.600Z,14.62
2017-01-16T06:32:37.365Z,14.52
2017-01-16T06:33:47.963Z,14.55
2017-01-16T06:34:57.240Z,14.57
2017-01-16T06:36:06.997Z,14.51
2017-01-16T06:37:17.146Z,14.51
2017-01-16T06:38:26.915Z,14.54
2017-01-16T06:39:36.652Z,14.51
2017-01-16T06:40:46.370Z,14.51
2017-01-16T06:41:56.523Z,14.42
2017-01-16T06:43:05.804Z,14.46
2017-01-16T06:44:15.577Z,14.52
2017-01-16T06:45:25.302Z,14.43
2017-01-16T06:46:35.020Z,14.5
2017-01-16T06:47:44.736Z,14.51
2017-01-16T06:48:54.885Z,14.52
2017-01-16T06:50:05.091Z,14.43
2017-01-16T06:51:15.688Z,14.42
2017-01-16T06:52:25.401Z,14.42
2017-01-16T06:53:35.554Z,14.42
2017-01-16T06:54:44.832Z,14.42
2017-01-16T06:55:54.601Z,14.43
2017-01-16T06:57:04.758Z,14.43
2017-01-16T06:58:14.911Z,14.4
2017-01-16T06:59:24.192Z,14.4
2017-01-16T07:00:33.901Z,14.45
2017-01-16T07:01:43.231Z,14.43
2017-01-16T07:02:53.383Z,14.46
2017-01-16T07:04:03.096Z,14.42
2017-01-16T07:05:13.249Z,14.42
2017-01-16T07:06:22.966Z,14.45
2017-01-16T07:07:33.164Z,14.45
2017-01-16T07:08:42.438Z,14.45
2017-01-16T07:09:52.154Z,14.46
2017-01-16T07:11:01.867Z,14.45
2017-01-16T07:12:12.056Z,14.5
2017-01-16T07:13:21.825Z,14.37
2017-01-16T07:14:32.414Z,14.5
2017-01-16T07:15:42.132Z,14.43
2017-01-16T07:16:51.432Z,14.4
2017-01-16T07:18:01.145Z,14.43
2017-01-16T07:19:11.786Z,14.39
2017-01-16T07:20:21.067Z,14.4
2017-01-16T07:21:31.656Z,14.4
2017-01-16T07:22:42.253Z,14.37
2017-01-16T07:23:51.966Z,14.39
2017-01-16T07:25:02.167Z,14.39
2017-01-16T07:26:11.880Z,14.4
2017-01-16T07:27:22.473Z,14.4
2017-01-16T07:28:32.635Z,14.32
2017-01-16T07:29:42.356Z,14.36
2017-01-16T07:30:52.565Z,14.36
2017-01-16T07:32:01.842Z,14.37
2017-01-16T07:33:12.435Z,14.35
2017-01-16T07:34:22.592Z,14.4
2017-01-16T07:35:31.866Z,14.39
2017-01-16T07:36:42.103Z,14.4
2017-01-16T07:37:52.692Z,14.36
2017-01-16T07:39:02.849Z,14.37
2017-01-16T07:40:12.126Z,14.36
2017-01-16T07:41:21.847Z,14.32
2017-01-16T07:42:32.493Z,14.27
2017-01-16T07:43:41.769Z,14.39
2017-01-16T07:44:51.931Z,14.39
2017-01-16T07:46:01.644Z,14.29
2017-01-16T07:47:12.236Z,14.36
2017-01-16T07:48:22.450Z,14.35
2017-01-16T07:49:31.731Z,14.35
2017-01-16T07:50:41.472Z,14.33
2017-01-16T07:51:51.621Z,14.28
2017-01-16T07:53:01.770Z,14.36
2017-01-16T07:54:12.424Z,14.28
2017-01-16T07:55:21.721Z,14.33
2017-01-16T07:56:30.998Z,14.37
2017-01-16T07:57:41.155Z,14.39
2017-01-16T07:58:50.873Z,14.37
2017-01-16T08:00:00.742Z,14.37
2017-01-16T08:01:11.336Z,14.4
2017-01-16T08:02:20.616Z,14.36
2017-01-16T08:03:30.344Z,14.36
2017-01-16T08:04:40.066Z,14.42
2017-01-16T08:05:50.707Z,14.36
2017-01-16T08:06:59.984Z,14.35
2017-01-16T08:08:10.149Z,14.37
2017-01-16T08:09:19.422Z,14.27
2017-01-16T08:10:29.579Z,14.27
2017-01-16T08:11:39.780Z,14.39
2017-01-16T08:12:49.940Z,14.43
2017-01-16T08:14:00.094Z,14.36
2017-01-16T08:15:09.387Z,14.4
2017-01-16T08:16:19.101Z,14.33
2017-01-16T08:17:28.869Z,14.35
2017-01-16T08:18:38.586Z,14.33
2017-01-16T08:19:48.303Z,14.36
2017-01-16T08:20:58.456Z,14.43
2017-01-16T08:22:07.737Z,14.35
2017-01-16T08:23:17.506Z,14.39
2017-01-16T08:24:27.220Z,14.33
2017-01-16T08:25:36.938Z,14.33
2017-01-16T08:26:47.094Z,14.33
2017-01-16T08:27:57.711Z,14.39
2017-01-16T08:29:07.916Z,14.36
2017-01-16T08:30:18.079Z,14.35
2017-01-16T08:31:27.803Z,14.45
2017-01-16T08:32:37.520Z,14.4
2017-01-16T08:33:47.669Z,14.4
2017-01-16T08:34:58.030Z,14.46
2017-01-16T08:36:08.635Z,14.4
2017-01-16T08:37:17.916Z,14.45
2017-01-16T08:38:28.066Z,14.43
2017-01-16T08:39:38.670Z,14.36
2017-01-16T08:40:48.444Z,14.45
2017-01-16T08:41:57.729Z,14.35
2017-01-16T08:43:07.450Z,14.43
2017-01-16T08:44:18.499Z,14.4
2017-01-16T08:45:27.792Z,14.45
2017-01-16T08:46:37.129Z,14.4
2017-01-16T08:47:47.287Z,14.47
2017-01-16T08:48:57.882Z,14.5
2017-01-16T08:50:08.477Z,14.43
2017-01-16T08:51:18.622Z,14.43
2017-01-16T08:52:27.947Z,14.42
2017-01-16T08:53:37.668Z,14.43
2017-01-16T08:54:47.381Z,14.43
2017-01-16T08:55:57.966Z,14.4
2017-01-16T08:57:08.124Z,14.39
2017-01-16T08:58:18.329Z,14.42
2017-01-16T08:59:28.486Z,14.43
2017-01-16T09:00:38.200Z,14.42
2017-01-16T09:01:48.357Z,14.45
2017-01-16T09:02:59.390Z,14.5
2017-01-16T09:04:08.720Z,14.43
2017-01-16T09:05:18.873Z,14.43
2017-01-16T09:06:28.594Z,14.47
2017-01-16T09:07:38.751Z,14.5
2017-01-16T09:08:49.349Z,14.51
2017-01-16T09:09:59.114Z,14.45
2017-01-16T09:11:09.267Z,14.54
2017-01-16T09:12:18.544Z,14.51
2017-01-16T09:13:28.262Z,14.55
2017-01-16T09:14:38.418Z,14.54
2017-01-16T09:15:48.628Z,14.58
2017-01-16T09:16:58.785Z,14.62
2017-01-16T09:18:08.938Z,14.62
2017-01-16T09:19:18.664Z,14.58
2017-01-16T09:20:29.253Z,14.58
2017-01-16T09:21:39.122Z,14.58
2017-01-16T09:22:48.836Z,14.61
2017-01-16T09:23:58.122Z,14.65
2017-01-16T09:25:07.842Z,14.65
2017-01-16T09:26:17.567Z,14.65
2017-01-16T09:27:27.777Z,14.72
2017-01-16T09:28:37.945Z,14.73
2017-01-16T09:29:47.667Z,14.64
2017-01-16T09:30:57.820Z,14.72
2017-01-16T09:32:07.538Z,14.72
2017-01-16T09:33:17.847Z,14.62
2017-01-16T09:34:28.000Z,14.75
2017-01-16T09:35:38.593Z,14.72
2017-01-16T09:36:48.311Z,14.64
2017-01-16T09:37:58.024Z,14.64
2017-01-16T09:39:07.793Z,14.69
2017-01-16T09:40:17.078Z,14.8
2017-01-16T09:41:27.232Z,14.7
2017-01-16T09:42:36.953Z,14.81
2017-01-16T09:43:47.546Z,14.65
2017-01-16T09:44:56.880Z,14.69
2017-01-16T09:46:06.165Z,14.7
2017-01-16T09:47:16.325Z,14.75
2017-01-16T09:48:26.471Z,14.8
2017-01-16T09:49:36.185Z,14.77
2017-01-16T09:50:45.954Z,14.73
2017-01-16T09:51:56.547Z,14.78
2017-01-16T09:53:06.701Z,14.81
2017-01-16T09:54:16.418Z,14.89
2017-01-16T09:55:26.135Z,14.86
2017-01-16T09:56:35.964Z,14.89
2017-01-16T09:57:45.245Z,14.81
2017-01-16T09:58:55.402Z,14.91
2017-01-16T10:00:05.556Z,14.86
2017-01-16T10:01:15.277Z,14.75
2017-01-16T10:02:25.478Z,14.8
2017-01-16T10:03:35.200Z,14.83
2017-01-16T10:04:44.481Z,14.72
2017-01-16T10:05:54.198Z,14.83
2017-01-16T10:07:03.911Z,14.78
2017-01-16T10:08:13.245Z,14.72
2017-01-16T10:09:23.402Z,14.77
2017-01-16T10:10:33.119Z,14.83
2017-01-16T10:11:43.276Z,14.73
2017-01-16T10:12:52.554Z,14.84
2017-01-16T10:14:03.251Z,14.78
2017-01-16T10:15:12.968Z,14.75
2017-01-16T10:16:23.125Z,14.8
2017-01-16T10:17:34.151Z,14.83
2017-01-16T10:18:43.873Z,14.8
2017-01-16T10:19:53.641Z,14.8
2017-01-16T10:21:03.355Z,14.73
2017-01-16T10:22:13.512Z,14.78
2017-01-16T10:23:23.248Z,14.8
2017-01-16T10:24:32.542Z,14.81
2017-01-16T10:25:43.187Z,14.75
2017-01-16T10:26:52.473Z,14.8
2017-01-16T10:28:02.190Z,14.69
2017-01-16T10:29:11.503Z,14.65
2017-01-16T10:30:21.220Z,14.69
2017-01-16T10:31:31.426Z,14.75
2017-01-16T10:32:41.587Z,14.83
2017-01-16T10:33:51.740Z,14.73
2017-01-16T10:35:01.453Z,14.77
2017-01-16T10:36:10.734Z,14.73
2017-01-16T10:37:21.380Z,14.78
2017-01-16T10:38:31.973Z,14.81
2017-01-16T10:39:42.130Z,14.73
2017-01-16T10:40:52.287Z,14.72
2017-01-16T10:42:02.005Z,14.84
2017-01-16T10:43:11.766Z,14.96
2017-01-16T10:44:21.919Z,14.95
2017-01-16T10:45:32.076Z,14.98
2017-01-16T10:46:41.798Z,14.98
2017-01-16T10:47:51.950Z,15.11
2017-01-16T10:49:01.720Z,15.2
2017-01-16T10:50:11.437Z,15.14
2017-01-16T10:51:21.159Z,15.14
2017-01-16T10:52:30.884Z,15.31
2017-01-16T10:53:40.597Z,15.28
2017-01-16T10:54:50.358Z,15.47
2017-01-16T10:56:00.531Z,15.44
2017-01-16T10:57:10.685Z,15.59
2017-01-16T10:58:20.406Z,15.64
2017-01-16T10:59:29.679Z,15.74
2017-01-16T11:00:39.448Z,15.83
2017-01-16T11:01:49.605Z,15.72
2017-01-16T11:03:00.198Z,15.78
2017-01-16T11:04:10.355Z,16.01
2017-01-16T11:05:20.516Z,16
2017-01-16T11:06:29.841Z,16.07
2017-01-16T11:07:39.994Z,16.09
2017-01-16T11:08:50.160Z,16.17
2017-01-16T11:09:59.445Z,16.24
2017-01-16T11:11:09.598Z,16.34
2017-01-16T11:12:19.367Z,16.34
2017-01-16T11:13:29.524Z,16.41
2017-01-16T11:14:39.241Z,16.41
2017-01-16T11:15:49.394Z,16.5
2017-01-16T11:16:59.107Z,16.46
2017-01-16T11:18:09.765Z,16.49
2017-01-16T11:19:19.491Z,16.52
2017-01-16T11:20:29.207Z,16.64
2017-01-16T11:21:39.372Z,16.67
2017-01-16T11:22:49.093Z,16.63
2017-01-16T11:23:59.302Z,16.63
2017-01-16T11:25:08.591Z,16.75
2017-01-16T11:26:18.756Z,16.7
2017-01-16T11:27:28.486Z,16.71
2017-01-16T11:28:38.638Z,16.7
2017-01-16T11:29:48.404Z,16.73
2017-01-16T11:30:58.117Z,16.79
2017-01-16T11:32:07.854Z,16.81
2017-01-16T11:33:17.143Z,16.75
2017-01-16T11:34:27.308Z,16.75
2017-01-16T11:35:37.513Z,16.81
2017-01-16T11:36:46.798Z,16.83
2017-01-16T11:37:56.952Z,16.83
2017-01-16T11:39:06.668Z,16.86
2017-01-16T11:40:17.264Z,16.83
2017-01-16T11:41:27.035Z,16.85
2017-01-16T11:42:36.756Z,16.81
2017-01-16T11:43:46.037Z,16.86
2017-01-16T11:44:55.754Z,16.82
2017-01-16T11:46:05.475Z,16.89
2017-01-16T11:47:15.248Z,16.83
2017-01-16T11:48:24.965Z,16.91
2017-01-16T11:49:35.567Z,16.89
2017-01-16T11:50:44.855Z,16.93
2017-01-16T11:51:54.592Z,16.93
2017-01-16T11:53:04.361Z,16.96
2017-01-16T11:54:14.091Z,16.97
2017-01-16T11:55:23.808Z,16.94
2017-01-16T11:56:33.533Z,16.97
2017-01-16T11:57:44.134Z,16.94
2017-01-16T11:58:53.463Z,16.94
2017-01-16T12:00:04.060Z,16.96
2017-01-16T12:01:13.780Z,16.96
2017-01-16T12:02:23.069Z,16.94
2017-01-16T12:03:32.787Z,16.93
2017-01-16T12:04:42.116Z,16.91
2017-01-16T12:05:52.273Z,16.86
2017-01-16T12:07:02.434Z,16.94
2017-01-16T12:08:11.722Z,16.81
2017-01-16T12:09:21.440Z,16.85
2017-01-16T12:10:31.209Z,16.83
2017-01-16T12:11:41.362Z,16.83
2017-01-16T12:12:51.959Z,16.91
2017-01-16T12:14:01.681Z,16.86
2017-01-16T12:15:12.277Z,16.97
2017-01-16T12:16:21.606Z,16.78
2017-01-16T12:17:32.203Z,16.83
2017-01-16T12:18:42.368Z,16.83
2017-01-16T12:19:52.545Z,16.78
2017-01-16T12:21:02.262Z,16.86
2017-01-16T12:22:12.467Z,16.78
2017-01-16T12:23:23.068Z,16.86
2017-01-16T12:24:33.225Z,16.81
2017-01-16T12:25:42.943Z,16.82
2017-01-16T12:26:53.103Z,16.79
2017-01-16T12:28:02.868Z,16.85
2017-01-16T12:29:12.581Z,16.97
2017-01-16T12:30:22.738Z,17.01
2017-01-16T12:31:32.899Z,17.07
2017-01-16T12:32:43.072Z,17.11
2017-01-16T12:33:52.397Z,17.16
2017-01-16T12:35:02.114Z,17.07
2017-01-16T12:36:11.831Z,17.08
2017-01-16T12:37:22.012Z,17.12
2017-01-16T12:38:31.293Z,17.11
2017-01-16T12:39:41.498Z,17.07
2017-01-16T12:40:51.652Z,17.07
2017-01-16T12:42:01.812Z,17.14
2017-01-16T12:43:12.405Z,17.12
2017-01-16T12:44:22.122Z,17.11
2017-01-16T12:45:31.892Z,17.14
2017-01-16T12:46:41.188Z,17.08
2017-01-16T12:47:50.905Z,17.12
2017-01-16T12:49:00.190Z,17.11
2017-01-16T12:50:09.932Z,17.14
2017-01-16T12:51:19.261Z,17.08
2017-01-16T12:52:28.541Z,17.11
2017-01-16T12:53:38.698Z,17.07
2017-01-16T12:54:48.416Z,17.08
2017-01-16T12:55:58.573Z,17.07
2017-01-16T12:57:07.906Z,17.12
2017-01-16T12:58:18.499Z,17.04
2017-01-16T12:59:28.216Z,17.03
2017-01-16T13:00:38.368Z,17.07
2017-01-16T13:01:48.526Z,17.11
2017-01-16T13:02:58.299Z,17.01
2017-01-16T13:04:08.456Z,17.08
2017-01-16T13:05:19.058Z,17.03
2017-01-16T13:06:29.211Z,17.08
2017-01-16T13:07:38.932Z,16.96
2017-01-16T13:08:49.729Z,16.98
2017-01-16T13:09:59.875Z,16.94
2017-01-16T13:11:10.040Z,16.93
2017-01-16T13:12:20.637Z,16.91
2017-01-16T13:13:31.235Z,16.91
2017-01-16T13:14:40.564Z,16.91
2017-01-16T13:15:50.721Z,16.81
2017-01-16T13:17:00.034Z,16.78
2017-01-16T13:18:09.753Z,16.83
2017-01-16T13:19:19.029Z,16.83
2017-01-16T13:20:29.263Z,16.82
2017-01-16T13:21:39.004Z,16.82
2017-01-16T13:22:49.596Z,16.82
2017-01-16T13:23:59.746Z,16.78
2017-01-16T13:25:09.904Z,16.82
2017-01-16T13:26:20.109Z,16.79
2017-01-16T13:27:29.826Z,16.76
2017-01-16T13:28:39.992Z,16.86
2017-01-16T13:29:50.157Z,16.83
2017-01-16T13:31:00.310Z,16.79
2017-01-16T13:32:10.519Z,16.76
2017-01-16T13:33:19.801Z,16.75
2017-01-16T13:34:29.530Z,16.75
2017-01-16T13:35:40.127Z,16.73
2017-01-16T13:36:50.289Z,16.82
2017-01-16T13:38:00.058Z,16.76
2017-01-16T13:39:10.220Z,16.71
2017-01-16T13:40:19.501Z,16.76
2017-01-16T13:41:29.658Z,16.73
2017-01-16T13:42:39.807Z,16.78
2017-01-16T13:43:49.577Z,16.71
2017-01-16T13:45:00.186Z,16.76
2017-01-16T13:46:10.779Z,16.71
2017-01-16T13:47:21.376Z,16.71
2017-01-16T13:48:31.094Z,16.76
2017-01-16T13:49:41.299Z,16.73
2017-01-16T13:50:51.016Z,16.76
2017-01-16T13:52:01.173Z,16.75
2017-01-16T13:53:11.771Z,16.76
2017-01-16T13:54:21.932Z,16.71
2017-01-16T13:55:31.265Z,16.75
2017-01-16T13:56:41.859Z,16.71
2017-01-16T13:57:52.044Z,16.82
2017-01-16T13:59:01.769Z,16.71
2017-01-16T14:00:11.487Z,16.71
2017-01-16T14:01:21.692Z,16.68
2017-01-16T14:02:31.413Z,16.78
2017-01-16T14:03:41.159Z,16.75
2017-01-16T14:04:50.880Z,16.64
2017-01-16T14:06:00.597Z,16.63
2017-01-16T14:07:10.379Z,16.75
2017-01-16T14:08:20.100Z,16.76
2017-01-16T14:09:30.257Z,16.75
2017-01-16T14:10:39.974Z,16.73
2017-01-16T14:11:49.684Z,16.71
2017-01-16T14:12:59.893Z,16.81
2017-01-16T14:14:10.487Z,16.76
2017-01-16T14:15:20.208Z,16.76
2017-01-16T14:16:29.937Z,16.75
2017-01-16T14:17:40.539Z,16.73
2017-01-16T14:18:50.744Z,16.68
2017-01-16T14:20:01.941Z,16.73
2017-01-16T14:21:12.583Z,16.7
2017-01-16T14:22:24.096Z,16.73
2017-01-16T14:23:35.497Z,16.67
2017-01-16T14:24:45.343Z,16.78
2017-01-16T14:25:56.448Z,16.75
2017-01-16T14:27:07.641Z,16.63
2017-01-16T14:28:18.599Z,16.63
2017-01-16T14:29:28.752Z,16.63
2017-01-16T14:30:39.465Z,16.73
2017-01-16T14:31:54.274Z,16.76
2017-01-16T14:33:05.020Z,16.91
2017-01-16T14:34:16.645Z,16.97
2017-01-16T14:35:28.182Z,16.91
2017-01-16T14:36:39.592Z,16.98
2017-01-16T14:37:49.392Z,17.11
2017-01-16T14:38:59.842Z,17.11
2017-01-16T14:40:09.559Z,17.11
2017-01-16T14:41:20.009Z,17.19
2017-01-16T14:42:31.482Z,17.26
2017-01-16T14:43:44.539Z,17.28
2017-01-16T14:44:55.589Z,17.36
2017-01-16T14:46:06.738Z,17.36
2017-01-16T14:47:17.299Z,17.41
2017-01-16T14:48:28.456Z,17.44
2017-01-16T14:49:38.878Z,17.44
2017-01-16T14:50:50.887Z,17.55
2017-01-16T14:52:02.204Z,17.59
2017-01-16T14:53:13.061Z,17.58
2017-01-16T14:54:24.983Z,17.74
2017-01-16T14:55:35.904Z,17.7
2017-01-16T14:56:48.561Z,17.72
2017-01-16T14:57:59.770Z,17.81
2017-01-16T14:59:10.259Z,17.82
2017-01-16T15:00:20.629Z,17.86
2017-01-16T15:01:30.814Z,17.86
2017-01-16T15:02:41.235Z,17.89
2017-01-16T15:03:50.517Z,17.96
2017-01-16T15:05:00.235Z,17.99